PWSweather.com
Personal Weather Stations
Station Observations
NEWFAL01
Newton Falls, OH 44444

Newton Falls, OH 44444

Lat: 41.19902, Lon: -80.97668

Elevation: 920

Station Type: Vantage Pro 2

http://www.mvweathercenter.com

Latest ConditionsUpdated 7:55:02 AM EDT Sunday, Mar 24, 2019
Currently Today's Max Today's Min Today's Average
Temperature 25.7°F-3.5°C 28.0°F-2.2°C 23.8°F-4.6°C 25.0°F-3.9°C
Dew Point 21.0°F-6.1°C 21.0°F-6.1°C 17.5°F-8.1°C 18.6°F-7.4°C
Winds Calm Calm Calm -Calm - - Calm Calm
Wind Gusts -- -- - -
Humidity 82% 82% 68% 77%
Pressure 30.27 in1025.1 mb 30.28 in1025.4 mb 30.25 in1024.4 mb -
Hour Temp Dew Point Humidity Winds Wind Gusts Pressure Precip Precip Rate Daily Precip Total
07:55 AM 25.7°F-3.5°C 21.0°F-6.1°C 82% Calm Calm -- 30.27 in1025.1 mb - 0.00 in0.0 mm 0.00 in0.0 mm
07:50 AM 25.5°F-3.6°C 20.8°F-6.2°C 82% Calm Calm -- 30.27 in1025.1 mb - 0.00 in0.0 mm 0.00 in0.0 mm
07:45 AM 25.4°F-3.7°C 20.6°F-6.3°C 82% Calm Calm -- 30.27 in1025.1 mb - 0.00 in0.0 mm 0.00 in0.0 mm
07:40 AM 25.2°F-3.8°C 20.5°F-6.4°C 82% Calm Calm -- 30.27 in1025.1 mb - 0.00 in0.0 mm 0.00 in0.0 mm
07:35 AM 25.1°F-3.8°C 20.4°F-6.4°C 82% Calm Calm -- 30.27 in1025.1 mb - 0.00 in0.0 mm 0.00 in0.0 mm
07:30 AM 24.9°F-3.9°C 20.2°F-6.6°C 82% Calm Calm -- 30.27 in1025.1 mb - 0.00 in0.0 mm 0.00 in0.0 mm
07:25 AM 24.8°F-4.0°C 20.1°F-6.6°C 82% Calm Calm -- 30.27 in1025.1 mb - 0.00 in0.0 mm 0.00 in0.0 mm
07:20 AM 24.7°F-4.1°C 20.0°F-6.7°C 82% Calm Calm -- 30.26 in1024.7 mb - 0.00 in0.0 mm 0.00 in0.0 mm
07:15 AM 24.5°F-4.2°C 19.8°F-6.8°C 82% Calm Calm -- 30.26 in1024.7 mb - 0.00 in0.0 mm 0.00 in0.0 mm
07:10 AM 24.4°F-4.2°C 19.7°F-6.8°C 82% Calm Calm -- 30.27 in1025.1 mb - 0.00 in0.0 mm 0.00 in0.0 mm
07:00 AM 24.3°F-4.3°C 19.6°F-6.9°C 82% Calm Calm -- 30.26 in1024.7 mb - 0.00 in0.0 mm 0.00 in0.0 mm
06:55 AM 24.2°F-4.3°C 19.2°F-7.1°C 81% Calm Calm -- 30.26 in1024.7 mb - 0.00 in0.0 mm 0.00 in0.0 mm
06:50 AM 24.1°F-4.4°C 19.1°F-7.2°C 81% Calm Calm -- 30.26 in1024.7 mb - 0.00 in0.0 mm 0.00 in0.0 mm
06:45 AM 24.0°F-4.4°C 19.0°F-7.2°C 81% Calm Calm -- 30.26 in1024.7 mb - 0.00 in0.0 mm 0.00 in0.0 mm
06:40 AM 24.0°F-4.4°C 19.0°F-7.2°C 81% Calm Calm -- 30.26 in1024.7 mb - 0.00 in0.0 mm 0.00 in0.0 mm
06:35 AM 23.9°F-4.5°C 18.9°F-7.3°C 81% Calm Calm -- 30.26 in1024.7 mb - 0.00 in0.0 mm 0.00 in0.0 mm
06:30 AM 23.8°F-4.6°C 18.8°F-7.3°C 81% Calm Calm -- 30.26 in1024.7 mb - 0.00 in0.0 mm 0.00 in0.0 mm
06:25 AM 23.8°F-4.6°C 18.8°F-7.3°C 81% Calm Calm -- 30.26 in1024.7 mb - 0.00 in0.0 mm 0.00 in0.0 mm
06:20 AM 23.9°F-4.5°C 18.9°F-7.3°C 81% Calm Calm -- 30.26 in1024.7 mb - 0.00 in0.0 mm 0.00 in0.0 mm
06:15 AM 23.9°F-4.5°C 18.9°F-7.3°C 81% Calm Calm -- 30.26 in1024.7 mb - 0.00 in0.0 mm 0.00 in0.0 mm
06:10 AM 23.9°F-4.5°C 18.9°F-7.3°C 81% Calm Calm -- 30.26 in1024.7 mb - 0.00 in0.0 mm 0.00 in0.0 mm
06:00 AM 24.0°F-4.4°C 19.0°F-7.2°C 81% Calm Calm -- 30.27 in1025.1 mb - 0.00 in0.0 mm 0.00 in0.0 mm
05:55 AM 24.1°F-4.4°C 19.1°F-7.2°C 81% Calm Calm -- 30.26 in1024.7 mb - 0.00 in0.0 mm 0.00 in0.0 mm
05:50 AM 24.0°F-4.4°C 19.0°F-7.2°C 81% Calm Calm -- 30.27 in1025.1 mb - 0.00 in0.0 mm 0.00 in0.0 mm
05:45 AM 24.0°F-4.4°C 19.0°F-7.2°C 81% Calm Calm -- 30.27 in1025.1 mb - 0.00 in0.0 mm 0.00 in0.0 mm
05:40 AM 23.9°F-4.5°C 18.9°F-7.3°C 81% Calm Calm -- 30.26 in1024.7 mb - 0.00 in0.0 mm 0.00 in0.0 mm
05:35 AM 23.9°F-4.5°C 18.9°F-7.3°C 81% Calm Calm -- 30.26 in1024.7 mb - 0.00 in0.0 mm 0.00 in0.0 mm
05:30 AM 23.9°F-4.5°C 18.9°F-7.3°C 81% Calm Calm -- 30.26 in1024.7 mb - 0.00 in0.0 mm 0.00 in0.0 mm
05:25 AM 23.9°F-4.5°C 18.9°F-7.3°C 81% Calm Calm -- 30.26 in1024.7 mb - 0.00 in0.0 mm 0.00 in0.0 mm
05:20 AM 23.9°F-4.5°C 18.9°F-7.3°C 81% Calm Calm -- 30.26 in1024.7 mb - 0.00 in0.0 mm 0.00 in0.0 mm
05:15 AM 23.9°F-4.5°C 18.9°F-7.3°C 81% Calm Calm -- 30.26 in1024.7 mb - 0.00 in0.0 mm 0.00 in0.0 mm
05:10 AM 23.9°F-4.5°C 18.6°F-7.4°C 80% Calm Calm -- 30.26 in1024.7 mb - 0.00 in0.0 mm 0.00 in0.0 mm
05:00 AM 24.0°F-4.4°C 18.7°F-7.4°C 80% Calm Calm -- 30.26 in1024.7 mb - 0.00 in0.0 mm 0.00 in0.0 mm
04:55 AM 24.0°F-4.4°C 18.7°F-7.4°C 80% Calm Calm -- 30.26 in1024.7 mb - 0.00 in0.0 mm 0.00 in0.0 mm
04:50 AM 24.0°F-4.4°C 18.7°F-7.4°C 80% Calm Calm -- 30.26 in1024.7 mb - 0.00 in0.0 mm 0.00 in0.0 mm
04:45 AM 24.0°F-4.4°C 18.7°F-7.4°C 80% Calm Calm -- 30.26 in1024.7 mb - 0.00 in0.0 mm 0.00 in0.0 mm
04:40 AM 24.0°F-4.4°C 18.7°F-7.4°C 80% Calm Calm -- 30.25 in1024.4 mb - 0.00 in0.0 mm 0.00 in0.0 mm
04:35 AM 23.9°F-4.5°C 18.6°F-7.4°C 80% Calm Calm -- 30.25 in1024.4 mb - 0.00 in0.0 mm 0.00 in0.0 mm
04:30 AM 23.9°F-4.5°C 18.6°F-7.4°C 80% Calm Calm -- 30.25 in1024.4 mb - 0.00 in0.0 mm 0.00 in0.0 mm
04:25 AM 23.9°F-4.5°C 18.6°F-7.4°C 80% Calm Calm -- 30.25 in1024.4 mb - 0.00 in0.0 mm 0.00 in0.0 mm
04:20 AM 23.9°F-4.5°C 18.6°F-7.4°C 80% Calm Calm -- 30.25 in1024.4 mb - 0.00 in0.0 mm 0.00 in0.0 mm
04:15 AM 23.8°F-4.6°C 18.3°F-7.6°C 79% Calm Calm -- 30.26 in1024.7 mb - 0.00 in0.0 mm 0.00 in0.0 mm
04:10 AM 23.9°F-4.5°C 18.3°F-7.6°C 79% Calm Calm -- 30.26 in1024.7 mb - 0.00 in0.0 mm 0.00 in0.0 mm
04:00 AM 23.9°F-4.5°C 18.3°F-7.6°C 79% Calm Calm -- 30.25 in1024.4 mb - 0.00 in0.0 mm 0.00 in0.0 mm
03:55 AM 24.0°F-4.4°C 18.1°F-7.7°C 78% Calm Calm -- 30.25 in1024.4 mb - 0.00 in0.0 mm 0.00 in0.0 mm
03:50 AM 24.0°F-4.4°C 18.1°F-7.7°C 78% Calm Calm -- 30.25 in1024.4 mb - 0.00 in0.0 mm 0.00 in0.0 mm
03:45 AM 24.0°F-4.4°C 18.1°F-7.7°C 78% Calm Calm -- 30.26 in1024.7 mb - 0.00 in0.0 mm 0.00 in0.0 mm
03:40 AM 24.1°F-4.4°C 18.2°F-7.7°C 78% Calm Calm -- 30.26 in1024.7 mb - 0.00 in0.0 mm 0.00 in0.0 mm
03:35 AM 24.1°F-4.4°C 18.2°F-7.7°C 78% Calm Calm -- 30.26 in1024.7 mb - 0.00 in0.0 mm 0.00 in0.0 mm
03:30 AM 24.2°F-4.3°C 18.3°F-7.6°C 78% Calm Calm -- 30.26 in1024.7 mb - 0.00 in0.0 mm 0.00 in0.0 mm
03:25 AM 24.2°F-4.3°C 18.1°F-7.7°C 77% Calm Calm -- 30.26 in1024.7 mb - 0.00 in0.0 mm 0.00 in0.0 mm
03:20 AM 24.3°F-4.3°C 18.1°F-7.7°C 77% Calm Calm -- 30.26 in1024.7 mb - 0.00 in0.0 mm 0.00 in0.0 mm
03:15 AM 24.3°F-4.3°C 18.1°F-7.7°C 77% Calm Calm -- 30.26 in1024.7 mb - 0.00 in0.0 mm 0.00 in0.0 mm
03:10 AM 24.4°F-4.2°C 17.9°F-7.8°C 76% Calm Calm -- 30.26 in1024.7 mb - 0.00 in0.0 mm 0.00 in0.0 mm
03:00 AM 24.5°F-4.2°C 17.7°F-7.9°C 75% Calm Calm -- 30.27 in1025.1 mb - 0.00 in0.0 mm 0.00 in0.0 mm
02:55 AM 24.5°F-4.2°C 17.7°F-7.9°C 75% Calm Calm -- 30.27 in1025.1 mb - 0.00 in0.0 mm 0.00 in0.0 mm
02:50 AM 24.6°F-4.1°C 17.8°F-7.9°C 75% Calm Calm -- 30.27 in1025.1 mb - 0.00 in0.0 mm 0.00 in0.0 mm
02:45 AM 24.6°F-4.1°C 17.8°F-7.9°C 75% Calm Calm -- 30.27 in1025.1 mb - 0.00 in0.0 mm 0.00 in0.0 mm
02:40 AM 24.7°F-4.1°C 17.9°F-7.8°C 75% Calm Calm -- 30.27 in1025.1 mb - 0.00 in0.0 mm 0.00 in0.0 mm
02:35 AM 24.8°F-4.0°C 18.0°F-7.8°C 75% Calm Calm -- 30.26 in1024.7 mb - 0.00 in0.0 mm 0.00 in0.0 mm
02:30 AM 24.9°F-3.9°C 18.1°F-7.7°C 75% Calm Calm -- 30.26 in1024.7 mb - 0.00 in0.0 mm 0.00 in0.0 mm
02:25 AM 25.1°F-3.8°C 18.0°F-7.8°C 74% Calm Calm -- 30.26 in1024.7 mb - 0.00 in0.0 mm 0.00 in0.0 mm
02:20 AM 25.2°F-3.8°C 17.8°F-7.9°C 73% Calm Calm -- 30.26 in1024.7 mb - 0.00 in0.0 mm 0.00 in0.0 mm
02:15 AM 25.4°F-3.7°C 17.9°F-7.8°C 73% Calm Calm -- 30.26 in1024.7 mb - 0.00 in0.0 mm 0.00 in0.0 mm
02:10 AM 25.5°F-3.6°C 18.0°F-7.8°C 73% Calm Calm -- 30.26 in1024.7 mb - 0.00 in0.0 mm 0.00 in0.0 mm
02:00 AM 25.8°F-3.4°C 18.0°F-7.8°C 72% Calm Calm -- 30.27 in1025.1 mb - 0.00 in0.0 mm 0.00 in0.0 mm
01:55 AM 26.0°F-3.3°C 18.2°F-7.7°C 72% Calm Calm -- 30.27 in1025.1 mb - 0.00 in0.0 mm 0.00 in0.0 mm
01:50 AM 26.1°F-3.3°C 18.0°F-7.8°C 71% Calm Calm -- 30.27 in1025.1 mb - 0.00 in0.0 mm 0.00 in0.0 mm
01:45 AM 26.2°F-3.2°C 17.7°F-7.9°C 70% Calm Calm -- 30.27 in1025.1 mb - 0.00 in0.0 mm 0.00 in0.0 mm
01:40 AM 26.3°F-3.2°C 17.5°F-8.1°C 69% Calm Calm -- 30.27 in1025.1 mb - 0.00 in0.0 mm 0.00 in0.0 mm
01:35 AM 26.4°F-3.1°C 17.6°F-8.0°C 69% Calm Calm -- 30.27 in1025.1 mb - 0.00 in0.0 mm 0.00 in0.0 mm
01:30 AM 26.5°F-3.1°C 17.7°F-7.9°C 69% Calm Calm -- 30.27 in1025.1 mb - 0.00 in0.0 mm 0.00 in0.0 mm
01:25 AM 26.6°F-3.0°C 17.8°F-7.9°C 69% Calm Calm -- 30.27 in1025.1 mb - 0.00 in0.0 mm 0.00 in0.0 mm
01:20 AM 26.7°F-2.9°C 17.9°F-7.8°C 69% Calm Calm -- 30.27 in1025.1 mb - 0.00 in0.0 mm 0.00 in0.0 mm
01:15 AM 26.7°F-2.9°C 17.9°F-7.8°C 69% Calm Calm -- 30.27 in1025.1 mb - 0.00 in0.0 mm 0.00 in0.0 mm
01:10 AM 26.9°F-2.8°C 18.1°F-7.7°C 69% Calm Calm -- 30.27 in1025.1 mb - 0.00 in0.0 mm 0.00 in0.0 mm
01:00 AM 27.1°F-2.7°C 17.9°F-7.8°C 68% Calm Calm -- 30.28 in1025.4 mb - 0.00 in0.0 mm 0.00 in0.0 mm
12:55 AM 27.2°F-2.7°C 18.0°F-7.8°C 68% Calm Calm -- 30.28 in1025.4 mb - 0.00 in0.0 mm 0.00 in0.0 mm
12:50 AM 27.3°F-2.6°C 18.1°F-7.7°C 68% Calm Calm -- 30.28 in1025.4 mb - 0.00 in0.0 mm 0.00 in0.0 mm
12:45 AM 27.4°F-2.6°C 18.2°F-7.7°C 68% Calm Calm -- 30.28 in1025.4 mb - 0.00 in0.0 mm 0.00 in0.0 mm
12:40 AM 27.5°F-2.5°C 18.7°F-7.4°C 69% Calm Calm -- 30.28 in1025.4 mb - 0.00 in0.0 mm 0.00 in0.0 mm
12:35 AM 27.6°F-2.4°C 18.7°F-7.4°C 69% Calm Calm -- 30.28 in1025.4 mb - 0.00 in0.0 mm 0.00 in0.0 mm
12:30 AM 27.6°F-2.4°C 18.8°F-7.3°C 69% Calm Calm -- 30.28 in1025.4 mb - 0.00 in0.0 mm 0.00 in0.0 mm
12:25 AM 27.7°F-2.4°C 18.9°F-7.3°C 69% Calm Calm -- 30.28 in1025.4 mb - 0.00 in0.0 mm 0.00 in0.0 mm
12:20 AM 27.8°F-2.3°C 18.9°F-7.3°C 69% Calm Calm -- 30.28 in1025.4 mb - 0.00 in0.0 mm 0.00 in0.0 mm
12:15 AM 27.9°F-2.3°C 18.7°F-7.4°C 68% Calm Calm -- 30.28 in1025.4 mb - 0.00 in0.0 mm 0.00 in0.0 mm
12:10 AM 27.9°F-2.3°C 18.7°F-7.4°C 68% Calm Calm -- 30.28 in1025.4 mb - 0.00 in0.0 mm 0.00 in0.0 mm
12:00 AM 28.0°F-2.2°C 18.8°F-7.3°C 68% Calm Calm -- 30.28 in1025.4 mb - 0.00 in0.0 mm 0.00 in0.0 mm